Time;durP1;ratioP1;P1;durP2;ratioP2;P2;SDS_P1;SDS_P2;PMS_P1;PMS_P2;Temp;Humidity;BMP_temperature;BMP_pressure;BME280_temperature;BME280_humidity;BME280_pressure;Samples;Min_cycle;Max_cycle;Signal;HPM_P1;HPM_P2
2022/10/29 00:00:54;;;;;;;15.02;4.72;;;18.80;99.90;;;;;;4965040;28;20034;-85
2022/10/29 00:03:20;;;;;;;19.08;4.65;;;18.80;99.90;;;;;;4964030;28;20085;-84
2022/10/29 00:06:02;;;;;;;18.98;5.28;;;18.70;99.90;;;;;;4966399;28;20062;-85
2022/10/29 00:08:29;;;;;;;15.65;4.15;;;18.70;99.90;;;;;;4965971;28;20027;-85
2022/10/29 00:10:56;;;;;;;14.27;4.47;;;18.60;99.90;;;;;;4967261;28;20023;-87
2022/10/29 00:13:22;;;;;;;20.83;6.22;;;18.40;99.90;;;;;;4967030;28;20463;-86
2022/10/29 00:15:48;;;;;;;19.92;5.63;;;18.30;99.90;;;;;;4966617;28;20026;-86
2022/10/29 00:18:13;;;;;;;17.58;4.93;;;18.20;99.90;;;;;;4967147;28;20137;-86
2022/10/29 00:20:39;;;;;;;18.63;5.80;;;18.10;99.90;;;;;;4967197;28;20551;-86
2022/10/29 00:23:05;;;;;;;20.30;5.10;;;18.00;99.90;;;;;;4966279;28;20058;-84
2022/10/29 00:25:30;;;;;;;12.45;4.88;;;17.90;99.90;;;;;;4965628;28;20429;-85
2022/10/29 00:27:56;;;;;;;18.77;5.15;;;17.80;99.90;;;;;;4946698;28;20495;-87
2022/10/29 00:30:22;;;;;;;26.27;5.30;;;17.70;99.90;;;;;;4967347;28;20023;-85
2022/10/29 00:32:47;;;;;;;19.83;5.18;;;17.60;99.90;;;;;;4965909;28;20023;-84
2022/10/29 00:35:13;;;;;;;18.83;5.38;;;17.60;99.90;;;;;;4966278;28;20026;-87
2022/10/29 00:37:39;;;;;;;21.73;5.22;;;17.50;99.90;;;;;;4964768;28;20115;-87
2022/10/29 00:40:05;;;;;;;30.80;7.07;;;17.50;99.90;;;;;;4966145;28;20039;-84
2022/10/29 00:42:31;;;;;;;29.65;6.43;;;17.50;99.90;;;;;;4965462;28;20505;-85
2022/10/29 00:44:57;;;;;;;29.88;7.35;;;17.50;99.90;;;;;;4966370;28;20030;-87
2022/10/29 00:47:35;;;;;;;28.80;5.97;;;17.70;99.90;;;;;;4959769;28;20141;-86
2022/10/29 00:50:08;;;;;;;26.80;6.88;;;17.80;99.90;;;;;;4965349;28;20037;-83
2022/10/29 00:52:37;;;;;;;35.75;8.23;;;18.00;99.90;;;;;;4965553;28;20499;-85
2022/10/29 00:55:06;;;;;;;26.42;6.32;;;18.10;99.90;;;;;;4965604;28;20038;-87
2022/10/29 00:57:47;;;;;;;18.95;5.47;;;18.20;99.90;;;;;;4960023;28;20393;-86
2022/10/29 01:00:14;;;;;;;29.10;5.57;;;18.30;99.90;;;;;;4962051;28;20519;-86
2022/10/29 01:02:41;;;;;;;32.55;7.28;;;18.30;99.90;;;;;;4967625;28;20031;-87
2022/10/29 01:05:13;;;;;;;43.17;7.32;;;18.30;99.90;;;;;;4965503;28;20102;-82
2022/10/29 01:07:39;;;;;;;33.33;6.07;;;18.30;99.90;;;;;;4967862;28;20035;-86
2022/10/29 01:10:05;;;;;;;28.80;6.10;;;18.20;99.90;;;;;;4967325;28;20023;-83
2022/10/29 01:12:58;;;;;;;16.30;4.63;;;18.20;99.90;;;;;;4968006;28;20031;-86
2022/10/29 01:15:39;;;;;;;12.35;4.97;;;18.10;99.90;;;;;;4969693;28;20037;-86
2022/10/29 01:18:21;;;;;;;19.75;5.25;;;18.00;99.90;;;;;;4969099;28;20399;-86
2022/10/29 01:21:08;;;;;;;12.55;5.07;;;18.00;99.90;;;;;;4971829;28;20058;-87
2022/10/29 01:24:04;;;;;;;22.67;7.22;;;17.90;99.90;;;;;;4969237;28;20125;-86
2022/10/29 01:26:46;;;;;;;;;;;17.80;99.90;;;;;;4966727;28;20046;-86
2022/10/29 01:29:27;;;;;;;;;;;17.70;99.90;;;;;;4949578;28;19914;-85
2022/10/29 01:32:00;;;;;;;;;;;17.60;99.90;;;;;;4966621;28;19910;-85
2022/10/29 01:34:37;;;;;;;;;;;17.40;99.90;;;;;;4970150;28;20008;-87
2022/10/29 01:37:11;;;;;;;;;;;17.40;99.90;;;;;;4967333;28;19925;-86
2022/10/29 01:39:43;;;;;;;;;;;17.40;99.90;;;;;;4967304;28;19964;-85
2022/10/29 01:42:14;;;;;;;;;;;17.40;99.90;;;;;;4965195;28;19988;-85
2022/10/29 01:44:47;;;;;;;;;;;17.40;99.90;;;;;;4969642;28;19914;-85
2022/10/29 01:47:23;;;;;;;;;;;17.60;99.90;;;;;;4969288;28;19917;-84
2022/10/29 01:49:55;;;;;;;;;;;17.80;99.90;;;;;;4970317;28;19910;-85
2022/10/29 01:52:21;;;;;;;;;;;17.90;99.90;;;;;;4964325;28;19956;-85
2022/10/29 01:54:47;;;;;;;;;;;18.00;99.90;;;;;;4970960;28;19952;-84
2022/10/29 01:57:33;;;;;;;;;;;18.10;99.90;;;;;;4969678;28;19953;-85
2022/10/29 02:00:07;;;;;;;;;;;18.20;99.90;;;;;;4966516;28;19957;-85
2022/10/29 02:02:55;;;;;;;;;;;18.30;99.90;;;;;;4969539;28;19910;-85
2022/10/29 02:05:26;;;;;;;;;;;18.30;99.90;;;;;;4959244;28;19921;-85
2022/10/29 02:08:07;;;;;;;;;;;18.30;99.90;;;;;;4968593;28;19922;-80
2022/10/29 02:10:37;;;;;;;;;;;18.30;99.90;;;;;;4969882;28;19910;-84
2022/10/29 02:13:03;;;;;;;;;;;18.30;99.90;;;;;;4968389;28;20356;-85
2022/10/29 02:15:32;;;;;;;;;;;18.40;99.90;;;;;;4969664;28;19910;-85
2022/10/29 02:18:05;;;;;;;;;;;18.30;99.90;;;;;;4964310;28;19925;-85
2022/10/29 02:20:31;;;;;;;;;;;18.40;99.90;;;;;;4968748;28;19910;-85
2022/10/29 02:22:56;;;;;;;;;;;18.30;99.90;;;;;;4969675;28;19996;-85
2022/10/29 02:25:22;;;;;;;;;;;18.40;99.90;;;;;;4963794;28;19918;-82
2022/10/29 02:27:48;;;;;;;;;;;18.30;99.90;;;;;;4970589;28;19910;-85
2022/10/29 02:30:14;;;;;;;;;;;18.40;99.90;;;;;;4965126;28;20304;-86
2022/10/29 02:32:39;;;;;;;;;;;18.30;99.90;;;;;;4964720;28;19910;-84
2022/10/29 02:35:05;;;;;;;;;;;18.30;99.90;;;;;;4968418;28;19960;-85
2022/10/29 02:37:30;;;;;;;;;;;18.30;99.90;;;;;;4965772;28;19918;-85
2022/10/29 02:39:56;;;;;;;;;;;18.20;99.90;;;;;;4967666;28;20502;-87
2022/10/29 02:42:22;;;;;;;;;;;18.20;99.90;;;;;;4967671;28;19964;-85
2022/10/29 02:44:47;;;;;;;;;;;18.20;99.90;;;;;;4967527;28;20375;-85
2022/10/29 02:47:13;;;;;;;;;;;18.10;99.90;;;;;;4969480;28;19954;-86
2022/10/29 02:49:38;;;;;;;;;;;18.10;99.90;;;;;;4969969;28;19909;-85
2022/10/29 02:52:04;;;;;;;;;;;18.10;99.90;;;;;;4965394;28;19915;-86
2022/10/29 02:54:29;;;;;;;;;;;18.00;99.90;;;;;;4968203;28;20333;-85
2022/10/29 02:56:55;;;;;;;;;;;18.00;99.90;;;;;;4969028;28;19918;-86
2022/10/29 02:59:21;;;;;;;;;;;18.00;99.90;;;;;;4968841;28;20522;-84
2022/10/29 03:01:46;;;;;;;;;;;18.00;99.90;;;;;;4968513;28;20151;-85
2022/10/29 03:04:12;;;;;;;;;;;17.90;99.90;;;;;;4968042;28;19917;-85
2022/10/29 03:06:37;;;;;;;;;;;17.90;99.90;;;;;;4968234;28;19918;-86
2022/10/29 03:09:03;;;;;;;;;;;17.90;99.90;;;;;;4969092;28;20040;-86
2022/10/29 03:11:28;;;;;;;;;;;17.90;99.90;;;;;;4968637;28;19942;-86
2022/10/29 03:13:54;;;;;;;;;;;17.90;99.90;;;;;;4969026;28;19917;-85
2022/10/29 03:16:19;;;;;;;;;;;17.90;99.90;;;;;;4966855;28;19920;-84
2022/10/29 03:18:45;;;;;;;;;;;17.80;99.90;;;;;;4966926;28;19953;-85
2022/10/29 03:21:10;;;;;;;;;;;17.80;99.90;;;;;;4969442;28;19910;-86
2022/10/29 03:23:36;;;;;;;;;;;17.70;99.90;;;;;;4967914;28;19921;-85
2022/10/29 03:26:02;;;;;;;;;;;17.60;99.90;;;;;;4967748;28;19910;-84
2022/10/29 03:28:29;;;;;;;;;;;17.60;99.90;;;;;;4968830;28;19957;-85
2022/10/29 03:30:54;;;;;;;;;;;17.50;99.90;;;;;;4969404;28;19925;-85
2022/10/29 03:33:19;;;;;;;;;;;17.30;99.90;;;;;;4967759;28;19921;-82
2022/10/29 03:35:48;;;;;;;;;;;17.20;99.90;;;;;;4966489;28;19913;-85
2022/10/29 03:38:14;;;;;;;;;;;17.10;99.90;;;;;;4947654;28;19925;-86
2022/10/29 03:40:39;;;;;;;;;;;17.00;99.90;;;;;;4967784;28;19917;-85
2022/10/29 03:43:05;;;;;;;;;;;17.00;99.90;;;;;;4968358;28;19949;-85
2022/10/29 03:45:30;;;;;;;;;;;17.00;99.90;;;;;;4970726;28;19910;-85
2022/10/29 03:47:56;;;;;;;;;;;16.80;99.90;;;;;;4964490;28;19989;-85
2022/10/29 03:50:22;;;;;;;;;;;16.90;99.90;;;;;;4965688;28;19918;-81
2022/10/29 03:52:47;;;;;;;;;;;16.80;99.90;;;;;;4966290;28;20328;-85
2022/10/29 03:55:13;;;;;;;;;;;16.80;99.90;;;;;;4964498;28;20026;-83
2022/10/29 03:57:38;;;;;;;;;;;16.70;99.90;;;;;;4967030;28;19922;-85
2022/10/29 04:00:04;;;;;;;;;;;16.80;99.90;;;;;;4967237;28;20364;-83
2022/10/29 04:02:30;;;;;;;;;;;16.80;99.90;;;;;;4966750;28;19909;-86
2022/10/29 04:04:55;;;;;;;;;;;16.80;99.90;;;;;;4965202;28;19941;-85
2022/10/29 04:07:21;;;;;;;;;;;16.80;99.90;;;;;;4965488;28;20492;-85
2022/10/29 04:09:46;;;;;;;;;;;16.80;99.90;;;;;;4967273;28;19914;-85
2022/10/29 04:12:12;;;;;;;;;;;16.80;99.90;;;;;;4965197;28;19910;-86
2022/10/29 04:14:37;;;;;;;;;;;16.80;99.90;;;;;;4965731;28;20283;-86
2022/10/29 04:17:03;;;;;;;;;;;16.90;99.90;;;;;;4967865;28;19918;-85
2022/10/29 04:19:28;;;;;;;;;;;16.80;99.90;;;;;;4962329;28;19910;-86
2022/10/29 04:21:54;;;;;;;;;;;16.80;99.90;;;;;;4966454;28;20033;-84
2022/10/29 04:24:19;;;;;;;;;;;16.80;99.90;;;;;;4965118;28;20002;-84
2022/10/29 04:26:45;;;;;;;;;;;16.80;99.90;;;;;;4968452;28;19917;-85
2022/10/29 04:29:10;;;;;;;;;;;16.70;99.90;;;;;;4968554;28;19910;-85
2022/10/29 04:31:39;;;;;;;;;;;16.70;99.90;;;;;;4968637;28;19960;-82
2022/10/29 04:34:05;;;;;;;;;;;16.70;99.90;;;;;;4969636;28;19957;-85
2022/10/29 04:36:30;;;;;;;;;;;16.70;99.90;;;;;;4962244;28;19922;-84
2022/10/29 04:38:56;;;;;;;;;;;16.60;99.90;;;;;;4968945;28;19922;-86
2022/10/29 04:41:21;;;;;;;;;;;16.60;99.90;;;;;;4968381;28;19917;-85
2022/10/29 04:43:47;;;;;;;;;;;16.60;99.90;;;;;;4960590;28;20323;-85
2022/10/29 04:46:13;;;;;;;;;;;16.60;99.90;;;;;;4967857;28;20356;-82
2022/10/29 04:48:38;;;;;;;;;;;16.50;99.90;;;;;;4968454;28;19958;-85
2022/10/29 04:51:04;;;;;;;;;;;16.50;99.90;;;;;;4970592;28;19965;-86
2022/10/29 04:53:29;;;;;;;;;;;16.50;99.90;;;;;;4970281;28;19964;-85
2022/10/29 04:56:05;;;;;;;;;;;16.50;99.90;;;;;;4969679;28;19910;-85
2022/10/29 04:58:30;;;;;;;;;;;16.60;99.90;;;;;;4970375;28;19918;-86
2022/10/29 05:01:00;;;;;;;;;;;16.70;99.90;;;;;;4972524;28;20002;-85
2022/10/29 05:03:26;;;;;;;;;;;16.80;99.90;;;;;;4972163;28;20051;-85
2022/10/29 05:05:51;;;;;;;;;;;16.90;99.90;;;;;;4971349;28;19918;-85
2022/10/29 05:08:20;;;;;;;;;;;17.00;99.90;;;;;;4971908;28;20260;-81
2022/10/29 05:10:45;;;;;;;;;;;17.10;99.90;;;;;;4970486;28;20384;-86
2022/10/29 05:13:11;;;;;;;;;;;17.10;99.90;;;;;;4973549;28;19910;-85
2022/10/29 05:15:38;;;;;;;;;;;17.20;99.90;;;;;;4968797;28;19921;-84
2022/10/29 05:18:04;;;;;;;;;;;17.20;99.90;;;;;;4968761;28;20349;-85
2022/10/29 05:20:29;;;;;;;;;;;17.20;99.90;;;;;;4968849;28;19917;-85
2022/10/29 05:22:58;;;;;;;;;;;17.20;99.90;;;;;;4971212;28;20368;-85
2022/10/29 05:25:24;;;;;;;;;;;17.20;99.90;;;;;;4971412;28;19965;-85
2022/10/29 05:27:49;;;;;;;;;;;17.30;99.90;;;;;;4969852;28;19910;-84
2022/10/29 05:30:15;;;;;;;;;;;17.20;99.90;;;;;;4964956;28;20368;-84
2022/10/29 05:32:40;;;;;;;;;;;17.20;99.90;;;;;;4967763;28;19992;-84
2022/10/29 05:35:06;;;;;;;;;;;17.20;99.90;;;;;;4968841;28;19917;-85
2022/10/29 05:37:32;;;;;;;;;;;17.20;99.90;;;;;;4968847;28;20419;-85
2022/10/29 05:39:57;;;;;;;;;;;17.10;99.90;;;;;;4971392;28;19922;-87
2022/10/29 05:42:22;;;;;;;;;;;17.10;99.90;;;;;;4967712;28;19919;-85
2022/10/29 05:44:48;;;;;;;;;;;17.00;99.90;;;;;;4968245;28;19910;-85
2022/10/29 05:47:13;;;;;;;;;;;17.00;99.90;;;;;;4969819;28;20360;-86
2022/10/29 05:49:39;;;;;;;;;;;17.00;99.90;;;;;;4970964;28;20394;-85
2022/10/29 05:52:05;;;;;;;;;;;16.90;99.90;;;;;;4969513;28;20384;-82
2022/10/29 05:54:30;;;;;;;;;;;16.80;99.90;;;;;;4966332;28;19917;-85
2022/10/29 05:56:57;;;;;;;;;;;16.70;99.90;;;;;;4965521;28;19918;-85
2022/10/29 05:59:22;;;;;;;;;;;16.60;99.90;;;;;;4965618;28;20285;-86
2022/10/29 06:01:48;;;;;;;;;;;16.60;99.90;;;;;;4967702;28;19917;-84
2022/10/29 06:04:13;;;;;;;;;;;16.50;99.90;;;;;;4962701;28;19914;-86
2022/10/29 06:06:39;;;;;;;;;;;16.30;99.90;;;;;;4960344;28;19918;-86
2022/10/29 06:09:05;;;;;;;;;;;16.20;99.90;;;;;;4965265;28;19910;-82
2022/10/29 06:11:30;;;;;;;;;;;16.20;99.90;;;;;;4964847;28;19918;-85
2022/10/29 06:13:56;;;;;;;;;;;16.10;99.90;;;;;;4962609;28;20016;-85
2022/10/29 06:16:21;;;;;;;;;;;15.90;99.90;;;;;;4967368;28;20350;-86
2022/10/29 06:18:47;;;;;;;;;;;15.90;99.90;;;;;;4966663;28;20444;-85
2022/10/29 06:21:12;;;;;;;;;;;15.80;99.90;;;;;;4965784;28;19910;-86
2022/10/29 06:23:38;;;;;;;;;;;15.80;99.90;;;;;;4968580;28;19918;-84
2022/10/29 06:26:03;;;;;;;;;;;15.80;99.90;;;;;;4968743;28;19910;-86
2022/10/29 06:28:29;;;;;;;;;;;15.80;99.90;;;;;;4960809;28;19913;-86
2022/10/29 06:30:55;;;;;;;;;;;15.80;99.90;;;;;;4969930;28;19945;-86
2022/10/29 06:33:20;;;;;;;;;;;15.90;99.90;;;;;;4967855;28;19910;-85
2022/10/29 06:35:46;;;;;;;;;;;16.10;99.90;;;;;;4970043;28;19910;-86
2022/10/29 06:38:12;;;;;;;;;;;16.20;99.90;;;;;;4968769;28;19918;-86
2022/10/29 06:40:38;;;;;;;;;;;16.20;99.90;;;;;;4967685;28;20142;-86
2022/10/29 06:43:05;;;;;;;;;;;16.30;99.90;;;;;;4966038;28;19937;-86
2022/10/29 06:45:32;;;;;;;;;;;16.30;99.90;;;;;;4965176;28;19953;-85
2022/10/29 06:47:57;;;;;;;;;;;16.40;99.90;;;;;;4963239;28;19910;-86
2022/10/29 06:50:23;;;;;;;;;;;16.40;99.90;;;;;;4964060;28;19910;-86
2022/10/29 06:52:58;;;;;;;;;;;16.40;99.90;;;;;;4963542;28;20005;-87
2022/10/29 06:55:24;;;;;;;;;;;16.50;99.90;;;;;;4961563;28;20403;-85
2022/10/29 06:58:00;;;;;;;;;;;16.60;99.90;;;;;;4962901;28;19918;-84
2022/10/29 07:00:26;;;;;;;;;;;16.70;99.90;;;;;;4959709;28;19920;-87
2022/10/29 07:02:52;;;;;;;;;;;16.80;99.90;;;;;;4965008;28;20238;-85
2022/10/29 07:05:18;;;;;;;;;;;16.80;99.90;;;;;;4962825;28;19918;-86
2022/10/29 07:07:43;;;;;;;;;;;16.90;99.90;;;;;;4963938;28;19997;-86
2022/10/29 07:10:09;;;;;;;;;;;17.00;99.90;;;;;;4968179;28;19910;-87
2022/10/29 07:12:42;;;;;;;;;;;17.00;99.90;;;;;;4968599;28;19953;-85
2022/10/29 07:15:08;;;;;;;;;;;17.00;99.90;;;;;;4959949;28;20344;-87
2022/10/29 07:17:33;;;;;;;;;;;17.10;99.90;;;;;;4957610;28;19929;-84
2022/10/29 07:19:59;;;;;;;;;;;17.10;99.90;;;;;;4968210;28;19910;-85
2022/10/29 07:22:24;;;;;;;;;;;17.10;99.90;;;;;;4968023;28;19914;-85
2022/10/29 07:24:50;;;;;;;;;;;17.10;99.90;;;;;;4965373;28;19910;-84
2022/10/29 07:27:15;;;;;;;;;;;17.20;99.90;;;;;;4969055;28;19909;-86
2022/10/29 07:29:41;;;;;;;;;;;17.20;99.90;;;;;;4966517;28;19956;-86
2022/10/29 07:32:06;;;;;;;;;;;17.30;99.90;;;;;;4969509;28;19914;-83
2022/10/29 07:34:32;;;;;;;;;;;17.30;99.90;;;;;;4966095;28;20454;-86
2022/10/29 07:36:58;;;;;;;;;;;17.30;99.90;;;;;;4945988;28;19961;-88
2022/10/29 07:39:23;;;;;;;;;;;17.30;99.90;;;;;;4964800;28;19917;-86
2022/10/29 07:41:49;;;;;;;;;;;17.30;99.90;;;;;;4967251;28;19910;-86
2022/10/29 07:44:14;;;;;;;;;;;17.30;99.90;;;;;;4962241;28;19914;-86
2022/10/29 07:46:40;;;;;;;;;;;17.30;99.90;;;;;;4961542;28;19968;-84
2022/10/29 07:49:05;;;;;;;;;;;17.30;99.90;;;;;;4963897;28;20041;-85
2022/10/29 07:51:31;;;;;;;;;;;17.30;99.90;;;;;;4965919;28;20048;-87
2022/10/29 07:53:56;;;;;;;;;;;17.30;99.90;;;;;;4958726;28;19945;-84
2022/10/29 07:56:22;;;;;;;;;;;17.30;99.90;;;;;;4964780;28;21034;-85
2022/10/29 07:58:47;;;;;;;;;;;17.20;99.90;;;;;;4961409;28;19914;-84
2022/10/29 08:01:13;;;;;;;;;;;17.20;99.90;;;;;;4967571;28;19917;-85
2022/10/29 08:03:38;;;;;;;;;;;17.20;99.90;;;;;;4964617;28;19910;-85
2022/10/29 08:06:04;;;;;;;;;;;17.20;99.90;;;;;;4965561;28;19925;-86
2022/10/29 08:08:30;;;;;;;;;;;17.20;99.90;;;;;;4966869;28;20342;-86
2022/10/29 08:11:02;;;;;;;;;;;17.20;99.90;;;;;;4966460;28;19910;-85
2022/10/29 08:13:28;;;;;;;;;;;17.20;99.90;;;;;;4960195;28;19917;-85
2022/10/29 08:15:53;;;;;;;;;;;17.30;99.90;;;;;;4967554;28;19918;-86
2022/10/29 08:18:19;;;;;;;;;;;17.30;99.90;;;;;;4968561;28;19965;-84
2022/10/29 08:20:44;;;;;;;;;;;17.30;99.90;;;;;;4964962;28;19918;-84
2022/10/29 08:23:10;;;;;;;;;;;17.30;99.90;;;;;;4967706;28;20448;-85
2022/10/29 08:25:40;;;;;;;;;;;17.40;99.90;;;;;;4969116;28;19917;-85
2022/10/29 08:28:06;;;;;;;;;;;17.40;99.90;;;;;;4972987;28;19909;-85
2022/10/29 08:30:32;;;;;;;;;;;17.40;99.90;;;;;;4970533;28;19918;-85
2022/10/29 08:32:58;;;;;;;;;;;17.40;99.90;;;;;;4970565;28;19957;-85
2022/10/29 08:35:23;;;;;;;;;;;17.40;99.90;;;;;;4970973;28;19953;-86
2022/10/29 08:37:49;;;;;;;;;;;17.40;99.90;;;;;;4971841;28;19980;-85
2022/10/29 08:40:20;;;;;;;;;;;17.50;99.90;;;;;;4968703;28;19910;-85
2022/10/29 08:43:08;;;;;;;;;;;17.50;99.90;;;;;;4972544;28;20458;-85
2022/10/29 08:45:37;;;;;;;;;;;17.60;99.90;;;;;;4966806;28;19932;-85
2022/10/29 08:48:06;;;;;;;;;;;17.60;99.90;;;;;;4957496;28;20265;-84
2022/10/29 08:50:39;;;;;;;;;;;17.70;99.90;;;;;;4973082;28;19909;-85
2022/10/29 08:53:13;;;;;;;;;;;17.70;99.90;;;;;;4964495;28;19973;-84
2022/10/29 08:55:39;;;;;;;;;;;17.80;99.90;;;;;;4965062;28;19957;-85
2022/10/29 08:58:12;;;;;;;;;;;17.90;99.90;;;;;;4971484;28;20419;-85
2022/10/29 09:00:40;;;;;;;;;;;18.00;99.90;;;;;;4971750;28;20004;-85
2022/10/29 09:03:12;;;;;;;;;;;18.10;99.90;;;;;;4973857;28;19910;-84
2022/10/29 09:05:43;;;;;;;;;;;18.10;99.90;;;;;;4969018;28;19928;-82
2022/10/29 09:08:14;;;;;;;;;;;18.10;99.90;;;;;;4967838;28;19910;-85
2022/10/29 09:10:43;;;;;;;;;;;18.20;99.90;;;;;;4973364;28;19989;-84
2022/10/29 09:13:31;;;;;;;;;;;18.20;99.90;;;;;;4972832;28;19910;-84
2022/10/29 09:16:15;;;;;;;;;;;18.20;99.90;;;;;;4959121;28;19910;-84
2022/10/29 09:18:58;;;;;;;;;;;18.20;99.90;;;;;;4969018;28;19918;-84
2022/10/29 09:21:23;;;;;;;;;;;18.20;99.90;;;;;;4969084;28;19910;-85
2022/10/29 09:24:07;;;;;;;;;;;18.30;99.90;;;;;;4971085;28;20332;-86
2022/10/29 09:26:39;;;;;;;;;;;18.40;99.90;;;;;;4966315;28;19917;-84
2022/10/29 09:29:08;;;;;;;;;;;18.50;99.90;;;;;;4967022;28;19913;-85
2022/10/29 09:31:38;;;;;;;;;;;18.50;99.90;;;;;;4971611;28;19960;-87
2022/10/29 09:34:09;;;;;;;;;;;18.50;99.90;;;;;;4965315;28;19922;-83
2022/10/29 09:36:35;;;;;;;;;;;18.60;99.90;;;;;;4962957;28;19974;-82
2022/10/29 09:39:02;;;;;;;;;;;18.70;99.90;;;;;;4971078;28;19910;-85
2022/10/29 09:41:32;;;;;;;;;;;18.70;99.90;;;;;;4964654;28;19910;-84
2022/10/29 09:44:01;;;;;;;;;;;18.80;99.90;;;;;;4966589;28;19921;-87
2022/10/29 09:46:29;;;;;;;;;;;18.90;99.90;;;;;;4964736;28;20447;-82
2022/10/29 09:49:02;;;;;;;;;;;19.10;99.90;;;;;;4961518;28;19910;-85
2022/10/29 09:51:30;;;;;;;;;;;19.20;99.90;;;;;;4969678;28;19913;-85
2022/10/29 09:53:56;;;;;;;;;;;19.20;99.90;;;;;;4969432;28;19910;-85
2022/10/29 09:56:21;;;;;;;;;;;19.30;99.90;;;;;;4964803;28;20330;-85
2022/10/29 09:58:51;;;;;;;;;;;19.40;99.90;;;;;;4969617;28;19998;-85
2022/10/29 10:01:17;;;;;;;;;;;19.50;99.90;;;;;;4967557;28;19918;-85
2022/10/29 10:03:46;;;;;;;;;;;19.50;99.90;;;;;;4970090;28;19965;-82
2022/10/29 10:06:13;;;;;;;;;;;19.50;99.90;;;;;;4966494;28;19918;-85
2022/10/29 10:08:59;;;;;;;;;;;19.40;99.90;;;;;;4967226;28;19916;-85
2022/10/29 10:11:26;;;;;;;;;;;19.30;99.90;;;;;;4968733;28;20647;-85
2022/10/29 10:13:55;;;;;;;;;;;19.30;99.90;;;;;;4969570;28;20150;-84
2022/10/29 10:16:27;;;;;;;;;;;19.30;99.90;;;;;;4968680;28;19910;-84
2022/10/29 10:18:53;;;;;;;;;;;19.30;99.90;;;;;;4967480;28;19918;-83
2022/10/29 10:21:26;;;;;;;;;;;19.30;99.90;;;;;;4965805;28;20266;-85
2022/10/29 10:23:52;;;;;;;;;;;19.30;99.90;;;;;;4964677;28;19985;-85
2022/10/29 10:26:30;;;;;;;;;;;19.30;99.90;;;;;;4966966;28;19910;-85
2022/10/29 10:29:15;;;;;;;;;;;19.30;99.90;;;;;;4965900;28;19998;-84
2022/10/29 10:31:42;;;;;;;;;;;19.30;99.90;;;;;;4966874;28;20326;-85
2022/10/29 10:34:28;;;;;;;;;;;19.30;99.90;;;;;;4964881;28;20376;-86
2022/10/29 10:36:56;;;;;;;;;;;19.30;99.90;;;;;;4953403;28;20320;-88
2022/10/29 10:39:27;;;;;;;;;;;19.40;99.90;;;;;;4965883;28;19917;-80
2022/10/29 10:41:54;;;;;;;;;;;19.40;99.90;;;;;;4963122;28;19910;-85
2022/10/29 10:44:20;;;;;;;;;;;19.60;99.90;;;;;;4963948;28;20291;-83
2022/10/29 10:46:46;;;;;;;;;;;19.70;99.90;;;;;;4962836;28;19917;-84
2022/10/29 10:49:16;;;;;;;;;;;19.70;99.90;;;;;;4961235;28;19910;-86
2022/10/29 10:51:42;;;;;;;;;;;19.70;99.90;;;;;;4965217;28;20683;-85
2022/10/29 10:54:28;;;;;;;;;;;19.70;99.90;;;;;;4961464;28;20287;-87
2022/10/29 10:56:58;;;;;;;;;;;19.70;99.90;;;;;;4961722;28;19925;-85
2022/10/29 10:59:27;;;;;;;;;;;19.80;99.90;;;;;;4967748;28;19956;-85
2022/10/29 11:01:53;;;;;;;;;;;19.80;99.90;;;;;;4965724;28;19914;-85
2022/10/29 11:04:30;;;;;;;;;;;19.80;99.90;;;;;;4965095;28;20478;-86
2022/10/29 11:06:58;;;;;;;;;;;19.80;99.90;;;;;;4961063;28;20272;-85
2022/10/29 11:09:25;;;;;;;;;;;19.80;99.90;;;;;;4959893;28;20387;-86
2022/10/29 11:12:10;;;;;;;;;;;19.80;99.90;;;;;;4965706;28;19914;-85
2022/10/29 11:14:41;;;;;;;;;;;19.80;99.90;;;;;;4965469;28;20315;-85
2022/10/29 11:17:16;;;;;;;;;;;20.00;99.90;;;;;;4967590;28;20375;-84
2022/10/29 11:19:44;;;;;;;;;;;20.20;99.90;;;;;;4957816;28;19910;-84
2022/10/29 11:22:30;;;;;;;;;;;20.20;99.90;;;;;;4956169;28;20358;-85
2022/10/29 11:25:13;;;;;;;;;;;20.30;99.90;;;;;;4940611;28;19918;-85
2022/10/29 11:27:46;;;;;;;;;;;20.40;99.90;;;;;;4963712;28;19929;-85
2022/10/29 11:30:13;;;;;;;;;;;20.40;99.90;;;;;;4968572;28;20221;-85
2022/10/29 11:32:51;;;;;;;;;;;20.50;99.90;;;;;;4965257;28;20272;-85
2022/10/29 11:35:27;;;;;;;;;;;20.50;99.90;;;;;;4960913;28;19917;-86
2022/10/29 11:37:59;;;;;;;;;;;20.50;99.90;;;;;;4960431;28;20380;-87
2022/10/29 11:40:34;;;;;;;;;;;20.50;99.90;;;;;;4961943;28;19910;-85
2022/10/29 11:43:02;;;;;;;;;;;20.60;99.90;;;;;;4966229;28;19932;-83
2022/10/29 11:45:54;;;;;;;;;;;20.70;99.90;;;;;;4964717;28;19909;-84
2022/10/29 11:48:22;;;;;;;;;;;20.90;99.90;;;;;;4956553;28;19910;-85
2022/10/29 11:50:55;;;;;;;;;;;21.00;99.90;;;;;;4967062;28;19916;-82
2022/10/29 11:53:29;;;;;;;;;;;21.00;99.90;;;;;;4962498;28;19914;-83
2022/10/29 11:56:03;;;;;;;;;;;21.10;99.90;;;;;;4966391;28;19910;-84
2022/10/29 11:58:35;;;;;;;;;;;21.20;99.90;;;;;;4967596;28;20371;-84
2022/10/29 12:01:19;;;;;;;;;;;21.20;99.90;;;;;;4963952;28;19909;-85
2022/10/29 12:03:50;;;;;;;;;;;21.40;99.90;;;;;;4965606;28;20056;-87
2022/10/29 12:06:31;;;;;;;;;;;21.40;99.90;;;;;;4965337;28;19957;-85
2022/10/29 12:08:57;;;;;;;;;;;21.50;99.90;;;;;;4962181;28;20283;-85
2022/10/29 12:11:22;;;;;;;;;;;21.50;99.90;;;;;;4967274;28;19917;-84
2022/10/29 12:13:48;;;;;;;;;;;21.50;99.90;;;;;;4964763;28;19949;-84
2022/10/29 12:16:13;;;;;;;;;;;21.60;99.90;;;;;;4966939;28;20331;-85
2022/10/29 12:18:39;;;;;;;;;;;21.60;99.90;;;;;;4962193;28;19964;-85
2022/10/29 12:21:07;;;;;;;;;;;21.50;99.90;;;;;;4966661;28;19917;-84
2022/10/29 12:23:42;;;;;;;;;;;21.50;99.90;;;;;;4962622;28;19914;-85
2022/10/29 12:26:16;;;;;;;;;;;21.40;99.90;;;;;;4964035;28;19916;-84
2022/10/29 12:28:48;;;;;;;;;;;21.30;99.90;;;;;;4963709;28;19910;-84
2022/10/29 12:31:18;;;;;;;;;;;21.30;99.90;;;;;;4965992;28;19910;-84
2022/10/29 12:33:48;;;;;;;;;;;21.30;99.90;;;;;;4963661;28;19949;-83
2022/10/29 12:36:21;;;;;;;;;;;21.30;99.90;;;;;;4962080;28;19932;-84
2022/10/29 12:38:52;;;;;;;;;;;21.30;99.90;;;;;;4968054;28;19953;-84
2022/10/29 12:41:18;;;;;;;;;;;21.30;99.90;;;;;;4963495;28;20360;-85
2022/10/29 12:43:44;;;;;;;;;;;21.20;99.90;;;;;;4964721;28;19918;-85
2022/10/29 12:46:17;;;;;;;;;;;21.20;99.90;;;;;;4962810;28;19973;-85
2022/10/29 12:48:55;;;;;;;;;;;21.20;99.90;;;;;;4961958;28;20379;-85
2022/10/29 12:51:46;;;;;;;;;;;21.20;99.90;;;;;;4964021;28;20379;-84
2022/10/29 12:54:15;;;;;;;;;;;21.20;99.90;;;;;;4958157;28;19915;-83
2022/10/29 12:56:42;;;;;;;;;;;21.30;99.90;;;;;;4964213;28;19918;-84
2022/10/29 12:59:23;;;;;;;;;;;21.30;99.90;;;;;;4966245;28;19910;-85
2022/10/29 13:01:49;;;;;;;;;;;21.20;99.90;;;;;;4958347;28;19918;-84
2022/10/29 13:04:23;;;;;;;;;;;21.10;99.90;;;;;;4964110;28;20406;-84
2022/10/29 13:07:04;;;;;;;;;;;21.20;99.90;;;;;;4963111;28;19918;-85
2022/10/29 13:09:29;;;;;;;;;;;21.10;99.90;;;;;;4963690;28;19920;-86
2022/10/29 13:12:01;;;;;;;;;;;21.10;99.90;;;;;;4966362;28;19910;-85
2022/10/29 13:14:36;;;;;;;;;;;21.00;99.90;;;;;;4964738;28;19933;-84
2022/10/29 13:17:17;;;;;;;;;;;20.90;99.90;;;;;;4964469;28;20399;-84
2022/10/29 13:19:51;;;;;;;;;;;20.90;99.90;;;;;;4965209;28;20016;-80
2022/10/29 13:22:16;;;;;;;;;;;20.80;99.90;;;;;;4969411;28;19961;-85
2022/10/29 13:24:42;;;;;;;;;;;20.90;99.90;;;;;;4968669;28;19946;-86
2022/10/29 13:27:11;;;;;;;;;;;20.80;99.90;;;;;;4969837;28;19910;-86
2022/10/29 13:29:44;;;;;;;;;;;20.80;99.90;;;;;;4961747;28;19918;-84
2022/10/29 13:32:28;;;;;;;;;;;20.70;99.90;;;;;;4964147;28;20043;-89
2022/10/29 13:34:58;;;;;;;;;;;20.80;99.90;;;;;;4961500;28;19910;-87
2022/10/29 13:37:53;;;;;;;;;;;20.80;99.90;;;;;;4966016;28;20347;-86
2022/10/29 13:40:21;;;;;;;;;;;20.80;99.90;;;;;;4948534;28;19910;-85
2022/10/29 13:42:57;;;;;;;;;;;20.80;99.90;;;;;;4968359;28;19910;-86
2022/10/29 13:45:23;;;;;;;;;;;20.70;99.90;;;;;;4968551;28;19914;-86
2022/10/29 13:47:49;;;;;;;;;;;20.70;99.90;;;;;;4969281;28;20421;-83
2022/10/29 13:50:16;;;;;;;;;;;20.60;99.90;;;;;;4969200;28;20000;-86
2022/10/29 13:52:43;;;;;;;;;;;20.70;99.90;;;;;;4967327;28;19910;-86
2022/10/29 13:55:13;;;;;;;;;;;20.60;99.90;;;;;;4966036;28;19940;-85
2022/10/29 13:57:49;;;;;;;;;;;20.70;99.90;;;;;;4964701;28;19925;-84
2022/10/29 14:00:19;;;;;;;;;;;20.70;99.90;;;;;;4963741;28;19918;-81
2022/10/29 14:03:03;;;;;;;;;;;20.70;99.90;;;;;;4966946;28;19910;-84
2022/10/29 14:05:32;;;;;;;;;;;20.70;99.90;;;;;;4963940;28;19961;-83
2022/10/29 14:08:10;;;;;;;;;;;20.70;99.90;;;;;;4958387;28;19957;-84
2022/10/29 14:10:43;;;;;;;;;;;20.60;99.90;;;;;;4965731;28;19933;-82
2022/10/29 14:13:27;;;;;;;;;;;20.60;99.90;;;;;;4967358;28;19910;-82
2022/10/29 14:16:01;;;;;;;;;;;20.50;99.90;;;;;;4967506;28;19917;-84
2022/10/29 14:18:27;;;;;;;;;;;20.50;99.90;;;;;;4957834;28;19948;-84